createdAt,value
2023-01-29T00:02:27.927Z,-0.13
2023-01-29T00:05:24.760Z,-0.15
2023-01-29T00:08:05.042Z,-0.14
2023-01-29T00:10:49.234Z,-0.12
2023-01-29T00:13:25.122Z,-0.13
2023-01-29T00:16:01.807Z,-0.16
2023-01-29T00:18:43.859Z,-0.18
2023-01-29T00:21:24.466Z,-0.18
2023-01-29T00:24:01.568Z,-0.15
2023-01-29T00:26:41.025Z,-0.16
2023-01-29T00:29:17.927Z,-0.21
2023-01-29T00:31:52.971Z,-0.17
2023-01-29T00:34:32.150Z,-0.17
2023-01-29T00:37:09.622Z,-0.20
2023-01-29T00:39:50.093Z,-0.17
2023-01-29T00:42:43.435Z,-0.21
2023-01-29T00:45:20.016Z,-0.22
2023-01-29T00:47:55.853Z,-0.20
2023-01-29T00:50:33.357Z,-0.20
2023-01-29T00:53:09.807Z,-0.16
2023-01-29T00:55:49.376Z,-0.16
2023-01-29T00:58:34.532Z,-0.15
2023-01-29T01:01:16.532Z,-0.15
2023-01-29T01:03:52.786Z,-0.17
2023-01-29T01:06:28.955Z,-0.16
2023-01-29T01:09:23.330Z,-0.17
2023-01-29T01:12:07.062Z,-0.18
2023-01-29T01:14:50.801Z,-0.19
2023-01-29T01:17:32.016Z,-0.21
2023-01-29T01:20:09.053Z,-0.22
2023-01-29T01:22:44.569Z,-0.23
2023-01-29T01:25:36.875Z,-0.21
2023-01-29T01:28:15.516Z,-0.21
2023-01-29T01:30:53.373Z,-0.21
2023-01-29T01:33:29.579Z,-0.22
2023-01-29T01:36:10.593Z,-0.18
2023-01-29T01:38:48.954Z,-0.17
2023-01-29T01:41:24.542Z,-0.18
2023-01-29T01:44:06.369Z,-0.17
2023-01-29T01:46:42.274Z,-0.16
2023-01-29T01:49:34.025Z,-0.17
2023-01-29T01:52:11.292Z,-0.18
2023-01-29T01:54:49.032Z,-0.17
2023-01-29T01:57:26.670Z,-0.15
2023-01-29T02:00:12.411Z,-0.17
2023-01-29T02:03:08.410Z,-0.19
2023-01-29T02:06:06.791Z,-0.17
2023-01-29T02:09:05.919Z,-0.16
2023-01-29T02:11:44.241Z,-0.18
2023-01-29T02:14:21.495Z,-0.18
2023-01-29T02:16:58.516Z,-0.18
2023-01-29T02:19:49.396Z,-0.19
2023-01-29T02:22:46.727Z,-0.17
2023-01-29T02:25:52.195Z,-0.19
2023-01-29T02:29:24.891Z,-0.20
2023-01-29T02:32:15.089Z,-0.25
2023-01-29T02:35:23.492Z,-0.23
2023-01-29T02:38:18.070Z,-0.23
2023-01-29T02:41:14.977Z,-0.24
2023-01-29T02:44:07.063Z,-0.23
2023-01-29T02:46:51.726Z,-0.23
2023-01-29T02:49:34.325Z,-0.22
2023-01-29T02:52:24.187Z,-0.20
2023-01-29T02:55:09.069Z,-0.19
2023-01-29T02:57:55.348Z,-0.20
2023-01-29T03:00:37.610Z,-0.20
2023-01-29T03:03:27.519Z,-0.21
2023-01-29T03:06:13.241Z,-0.23
2023-01-29T03:08:58.052Z,-0.21
2023-01-29T03:11:41.094Z,-0.20
2023-01-29T03:14:20.742Z,-0.18
2023-01-29T03:16:58.152Z,-0.15
2023-01-29T03:19:48.734Z,-0.13
2023-01-29T03:22:32.938Z,-0.15
2023-01-29T03:25:30.233Z,-0.12
2023-01-29T03:28:29.905Z,-0.12
2023-01-29T03:31:28.387Z,-0.15
2023-01-29T03:34:17.550Z,-0.16
2023-01-29T03:36:59.185Z,-0.16
2023-01-29T03:39:37.275Z,-0.15
2023-01-29T03:42:21.069Z,-0.14
2023-01-29T03:45:10.939Z,-0.09
2023-01-29T03:47:54.011Z,-0.10
2023-01-29T03:50:45.775Z,-0.10
2023-01-29T03:53:28.222Z,-0.08
2023-01-29T03:56:23.019Z,-0.09
2023-01-29T03:59:11.442Z,-0.12
2023-01-29T04:02:13.391Z,-0.12
2023-01-29T04:04:55.882Z,-0.13
2023-01-29T04:07:33.996Z,-0.11
2023-01-29T04:10:19.268Z,-0.12
2023-01-29T04:13:04.298Z,-0.09
2023-01-29T04:15:50.507Z,-0.10
2023-01-29T04:18:37.394Z,-0.08
2023-01-29T04:21:20.737Z,-0.07
2023-01-29T04:24:01.527Z,-0.07
2023-01-29T04:26:58.284Z,-0.10
2023-01-29T04:29:43.948Z,-0.10
2023-01-29T04:32:29.808Z,-0.12
2023-01-29T04:35:19.387Z,-0.13
2023-01-29T04:38:05.603Z,-0.10
2023-01-29T04:40:52.925Z,-0.06
2023-01-29T04:43:36.052Z,-0.06
2023-01-29T04:46:19.580Z,-0.08
2023-01-29T04:49:07.909Z,-0.11
2023-01-29T04:51:51.812Z,-0.11
2023-01-29T04:54:37.568Z,-0.12
2023-01-29T04:57:29.543Z,-0.13
2023-01-29T05:00:14.651Z,-0.14
2023-01-29T05:02:56.629Z,-0.14
2023-01-29T05:05:33.936Z,-0.14
2023-01-29T05:08:12.361Z,-0.14
2023-01-29T05:10:51.633Z,-0.14
2023-01-29T05:13:39.520Z,-0.11
2023-01-29T05:16:23.716Z,-0.11
2023-01-29T05:19:02.599Z,-0.12
2023-01-29T05:21:41.298Z,-0.12
2023-01-29T05:24:19.436Z,-0.12
2023-01-29T05:27:13.817Z,-0.12
2023-01-29T05:29:51.880Z,-0.15
2023-01-29T05:32:29.062Z,-0.17
2023-01-29T05:35:05.961Z,-0.16
2023-01-29T05:37:41.545Z,-0.14
2023-01-29T05:40:19.057Z,-0.16
2023-01-29T05:42:55.315Z,-0.18
2023-01-29T05:45:29.772Z,-0.18
2023-01-29T05:48:07.973Z,-0.17
2023-01-29T05:50:46.666Z,-0.18
2023-01-29T05:53:22.866Z,-0.18
2023-01-29T05:55:59.479Z,-0.17
2023-01-29T05:58:35.439Z,-0.18
2023-01-29T06:01:22.204Z,-0.16
2023-01-29T06:03:57.686Z,-0.17
2023-01-29T06:06:31.981Z,-0.19
2023-01-29T06:09:10.847Z,-0.19
2023-01-29T06:11:45.769Z,-0.20
2023-01-29T06:14:22.397Z,-0.19
2023-01-29T06:16:59.356Z,-0.22
2023-01-29T06:19:51.723Z,-0.24
2023-01-29T06:22:31.532Z,-0.21
2023-01-29T06:25:10.239Z,-0.19
2023-01-29T06:27:49.675Z,-0.19
2023-01-29T06:30:25.827Z,-0.15
2023-01-29T06:33:03.360Z,-0.14
2023-01-29T06:35:46.460Z,-0.16
2023-01-29T06:38:22.573Z,-0.16
2023-01-29T06:41:02.086Z,-0.15
2023-01-29T06:43:39.341Z,-0.18
2023-01-29T06:46:16.462Z,-0.19
2023-01-29T06:48:56.555Z,-0.20
2023-01-29T06:51:32.852Z,-0.19
2023-01-29T06:54:12.523Z,-0.19
2023-01-29T06:56:54.303Z,-0.17
2023-01-29T06:59:31.424Z,-0.16
2023-01-29T07:02:11.439Z,-0.15
2023-01-29T07:04:48.889Z,-0.14
2023-01-29T07:07:33.617Z,-0.13
2023-01-29T07:10:14.977Z,-0.14
2023-01-29T07:13:07.095Z,-0.14
2023-01-29T07:15:51.485Z,-0.12
2023-01-29T07:18:30.715Z,-0.11
2023-01-29T07:21:14.524Z,-0.08
2023-01-29T07:23:52.468Z,-0.05
2023-01-29T07:26:32.926Z,-0.03
2023-01-29T07:29:13.672Z,0.01
2023-01-29T07:31:52.339Z,0.05
2023-01-29T07:34:36.966Z,0.04
2023-01-29T07:37:16.962Z,0.08
2023-01-29T07:39:54.226Z,0.07
2023-01-29T07:42:32.712Z,0.11
2023-01-29T07:45:11.068Z,0.13
2023-01-29T07:47:55.575Z,0.13
2023-01-29T07:50:39.759Z,0.15
2023-01-29T07:53:18.548Z,0.13
2023-01-29T07:55:59.897Z,0.16
2023-01-29T07:58:37.241Z,0.15
2023-01-29T08:01:16.478Z,0.17
2023-01-29T08:03:53.023Z,0.19
2023-01-29T08:06:28.461Z,0.19
2023-01-29T08:09:05.854Z,0.21
2023-01-29T08:11:47.412Z,0.25
2023-01-29T08:14:26.682Z,0.28
2023-01-29T08:17:05.180Z,0.30
2023-01-29T08:19:48.181Z,0.30
2023-01-29T08:22:23.246Z,0.32
2023-01-29T08:25:08.271Z,0.36
2023-01-29T08:27:50.862Z,0.40
2023-01-29T08:30:28.099Z,0.42
2023-01-29T08:33:07.999Z,0.48
2023-01-29T08:35:51.918Z,0.49
2023-01-29T08:38:31.231Z,0.48
2023-01-29T08:41:08.112Z,0.50
2023-01-29T08:43:49.588Z,0.53
2023-01-29T08:46:32.663Z,0.56
2023-01-29T08:49:10.675Z,0.54
2023-01-29T08:51:46.907Z,0.56
2023-01-29T08:54:23.449Z,0.58
2023-01-29T08:57:01.676Z,0.63
2023-01-29T08:59:36.838Z,0.66
2023-01-29T09:02:13.398Z,0.69
2023-01-29T09:04:50.816Z,0.68
2023-01-29T09:07:31.018Z,0.68
2023-01-29T09:10:08.346Z,0.70
2023-01-29T09:12:43.466Z,0.72
2023-01-29T09:15:18.685Z,0.73
2023-01-29T09:17:55.460Z,0.74
2023-01-29T09:20:31.064Z,0.75
2023-01-29T09:23:14.374Z,0.76
2023-01-29T09:25:51.984Z,0.78
2023-01-29T09:28:27.928Z,0.77
2023-01-29T09:31:05.307Z,0.80
2023-01-29T09:33:41.742Z,0.84
2023-01-29T09:36:19.920Z,0.84
2023-01-29T09:38:56.383Z,0.87
2023-01-29T09:41:46.224Z,0.87
2023-01-29T09:44:28.287Z,0.89
2023-01-29T09:47:08.188Z,0.88
2023-01-29T09:49:46.727Z,0.92
2023-01-29T09:52:32.231Z,0.95
2023-01-29T09:55:19.221Z,0.96
2023-01-29T09:57:59.299Z,0.94
2023-01-29T10:00:40.897Z,0.99
2023-01-29T10:03:34.887Z,1.00
2023-01-29T10:06:24.775Z,1.00
2023-01-29T10:12:43.879Z,0.97
2023-01-29T10:15:33.423Z,0.87
2023-01-29T10:18:43.578Z,0.91
2023-01-29T10:21:36.124Z,0.91
2023-01-29T10:24:22.104Z,0.92
2023-01-29T10:27:01.415Z,0.97
2023-01-29T10:29:37.513Z,1.02
2023-01-29T10:32:19.951Z,1.04
2023-01-29T10:35:06.949Z,1.07
2023-01-29T10:37:45.275Z,1.09
2023-01-29T10:40:29.848Z,1.12
2023-01-29T10:43:13.886Z,1.15
2023-01-29T10:45:57.920Z,1.14
2023-01-29T10:48:55.799Z,1.15
2023-01-29T10:51:56.773Z,1.19
2023-01-29T10:54:49.456Z,1.19
2023-01-29T10:57:43.179Z,1.21
2023-01-29T11:00:24.679Z,1.21
2023-01-29T11:03:01.183Z,1.18
2023-01-29T11:05:43.707Z,1.19
2023-01-29T11:08:23.596Z,1.20
2023-01-29T11:11:08.079Z,1.18
2023-01-29T11:13:47.516Z,1.18
2023-01-29T11:16:23.491Z,1.23
2023-01-29T11:19:01.391Z,1.24
2023-01-29T11:21:58.276Z,1.23
2023-01-29T11:24:35.294Z,1.21
2023-01-29T11:27:26.251Z,1.20
2023-01-29T11:30:02.902Z,1.20
2023-01-29T11:32:39.151Z,1.23
2023-01-29T11:35:27.020Z,1.27
2023-01-29T11:38:11.781Z,1.26
2023-01-29T11:40:47.773Z,1.28
2023-01-29T11:43:32.702Z,1.28
2023-01-29T11:46:10.261Z,1.28
2023-01-29T11:48:51.363Z,1.28
2023-01-29T11:51:29.694Z,1.30
2023-01-29T11:54:08.937Z,1.32
2023-01-29T11:56:48.327Z,1.32
2023-01-29T11:59:40.591Z,1.32
2023-01-29T12:02:38.969Z,1.31
2023-01-29T12:05:24.038Z,1.26
2023-01-29T12:08:01.792Z,1.29
2023-01-29T12:10:39.157Z,1.28
2023-01-29T12:13:30.556Z,1.31
2023-01-29T12:16:25.433Z,1.28
2023-01-29T12:19:08.311Z,1.27
2023-01-29T12:21:50.534Z,1.32
2023-01-29T12:24:37.660Z,1.34
2023-01-29T12:27:18.492Z,1.34
2023-01-29T12:30:00.663Z,1.36
2023-01-29T12:32:43.441Z,1.37
2023-01-29T12:35:28.410Z,1.37
2023-01-29T12:38:10.910Z,1.37
2023-01-29T12:40:50.101Z,1.35
2023-01-29T12:43:40.208Z,1.32
2023-01-29T12:46:24.853Z,1.29
2023-01-29T12:49:06.023Z,1.25
2023-01-29T12:51:49.262Z,1.21
2023-01-29T12:54:30.264Z,1.21
2023-01-29T12:57:12.008Z,1.22
2023-01-29T12:59:53.393Z,1.24
2023-01-29T13:02:38.128Z,1.24
2023-01-29T13:05:25.406Z,1.22
2023-01-29T13:08:05.378Z,1.25
2023-01-29T13:10:44.927Z,1.24
2023-01-29T13:13:30.060Z,1.21
2023-01-29T13:16:06.357Z,1.20
2023-01-29T13:18:57.511Z,1.23
2023-01-29T13:21:39.693Z,1.23
2023-01-29T13:24:17.875Z,1.20
2023-01-29T13:26:52.499Z,1.21
2023-01-29T13:29:29.968Z,1.22
2023-01-29T13:32:07.346Z,1.22
2023-01-29T13:34:49.983Z,1.20
2023-01-29T13:37:33.551Z,1.25
2023-01-29T13:40:22.525Z,1.29
2023-01-29T13:43:00.381Z,1.32
2023-01-29T13:45:48.287Z,1.31
2023-01-29T13:48:29.928Z,1.31
2023-01-29T13:51:15.770Z,1.33
2023-01-29T13:53:59.975Z,1.31
2023-01-29T13:57:32.040Z,1.32
2023-01-29T14:00:06.828Z,1.26
2023-01-29T14:02:42.345Z,1.25
2023-01-29T14:05:43.443Z,1.26
2023-01-29T14:08:48.878Z,1.25
2023-01-29T14:12:03.082Z,1.27
2023-01-29T14:15:19.860Z,1.23
2023-01-29T14:18:05.967Z,1.23
2023-01-29T14:20:51.279Z,1.24
2023-01-29T14:23:40.612Z,1.23
2023-01-29T14:26:32.074Z,1.24
2023-01-29T14:29:32.638Z,1.26
2023-01-29T14:32:20.685Z,1.25
2023-01-29T14:34:59.432Z,1.26
2023-01-29T14:37:40.268Z,1.26
2023-01-29T14:40:25.396Z,1.27
2023-01-29T14:43:05.142Z,1.25
2023-01-29T14:45:44.765Z,1.26
2023-01-29T14:48:49.420Z,1.27
2023-01-29T14:51:28.842Z,1.27
2023-01-29T14:54:15.174Z,1.26
2023-01-29T14:56:58.724Z,1.29
2023-01-29T14:59:41.879Z,1.28
2023-01-29T15:02:21.917Z,1.26
2023-01-29T15:05:00.096Z,1.28
2023-01-29T15:07:38.888Z,1.26
2023-01-29T15:10:27.251Z,1.24
2023-01-29T15:13:07.072Z,1.22
2023-01-29T15:15:49.854Z,1.23
2023-01-29T15:18:35.250Z,1.23
2023-01-29T15:21:19.954Z,1.21
2023-01-29T15:24:07.625Z,1.20
2023-01-29T15:26:44.533Z,1.19
2023-01-29T15:29:28.457Z,1.22
2023-01-29T15:32:05.864Z,1.24
2023-01-29T15:34:45.235Z,1.23
2023-01-29T15:37:34.710Z,1.25
2023-01-29T15:40:19.409Z,1.24
2023-01-29T15:42:55.048Z,1.22
2023-01-29T15:45:42.888Z,1.20
2023-01-29T15:48:23.700Z,1.18
2023-01-29T15:51:00.216Z,1.20
2023-01-29T15:53:42.778Z,1.21
2023-01-29T15:56:20.850Z,1.21
2023-01-29T15:58:57.282Z,1.20
2023-01-29T16:01:34.102Z,1.19
2023-01-29T16:04:14.420Z,1.17
2023-01-29T16:06:53.694Z,1.19
2023-01-29T16:09:31.442Z,1.23
2023-01-29T16:12:07.650Z,1.27
2023-01-29T16:14:43.776Z,1.27
2023-01-29T16:17:36.386Z,1.27
2023-01-29T16:20:33.783Z,1.24
2023-01-29T16:23:09.801Z,1.23
2023-01-29T16:25:45.326Z,1.23
2023-01-29T16:28:19.337Z,1.23
2023-01-29T16:31:02.686Z,1.22
2023-01-29T16:33:41.541Z,1.22
2023-01-29T16:36:21.890Z,1.23
2023-01-29T16:39:01.531Z,1.23
2023-01-29T16:41:39.597Z,1.24
2023-01-29T16:44:45.080Z,1.24
2023-01-29T16:47:28.985Z,1.20
2023-01-29T16:50:06.084Z,1.21
2023-01-29T16:52:41.427Z,1.21
2023-01-29T16:55:34.051Z,1.21
2023-01-29T16:58:18.328Z,1.18
2023-01-29T17:01:00.902Z,1.19
2023-01-29T17:03:38.401Z,1.20
2023-01-29T17:06:23.406Z,1.21
2023-01-29T17:08:59.270Z,1.16
2023-01-29T17:11:40.137Z,1.18
2023-01-29T17:14:21.431Z,1.21
2023-01-29T17:17:03.868Z,1.22
2023-01-29T17:19:37.879Z,1.22
2023-01-29T17:22:15.723Z,1.23
2023-01-29T17:24:51.636Z,1.25
2023-01-29T17:27:27.161Z,1.26
2023-01-29T17:30:02.337Z,1.29
2023-01-29T17:32:44.806Z,1.30
2023-01-29T17:35:22.440Z,1.28
2023-01-29T17:37:56.752Z,1.27
2023-01-29T17:40:40.865Z,1.27
2023-01-29T17:43:18.724Z,1.28
2023-01-29T17:45:53.878Z,1.25
2023-01-29T17:48:33.210Z,1.26
2023-01-29T17:51:13.808Z,1.26
2023-01-29T17:53:48.205Z,1.24
2023-01-29T17:56:28.713Z,1.24
2023-01-29T17:59:02.249Z,1.23
2023-01-29T18:01:35.769Z,1.24
2023-01-29T18:04:11.500Z,1.25
2023-01-29T18:06:49.374Z,1.25
2023-01-29T18:09:25.053Z,1.22
2023-01-29T18:12:00.374Z,1.22
2023-01-29T18:14:38.032Z,1.21
2023-01-29T18:17:14.712Z,1.22
2023-01-29T18:19:51.221Z,1.22
2023-01-29T18:22:25.766Z,1.24
2023-01-29T18:25:01.224Z,1.26
2023-01-29T18:27:36.335Z,1.26
2023-01-29T18:30:15.682Z,1.24
2023-01-29T18:32:50.678Z,1.23
2023-01-29T18:35:25.911Z,1.25
2023-01-29T18:38:00.791Z,1.27
2023-01-29T18:40:37.513Z,1.28
2023-01-29T18:43:14.338Z,1.28
2023-01-29T18:45:50.188Z,1.27
2023-01-29T18:48:27.428Z,1.31
2023-01-29T18:51:03.639Z,1.33
2023-01-29T18:53:40.459Z,1.32
2023-01-29T18:56:14.097Z,1.32
2023-01-29T18:58:52.178Z,1.33
2023-01-29T19:01:30.133Z,1.34
2023-01-29T19:04:05.672Z,1.37
2023-01-29T19:06:40.955Z,1.35
2023-01-29T19:09:16.467Z,1.35
2023-01-29T19:11:52.059Z,1.35
2023-01-29T19:14:28.692Z,1.36
2023-01-29T19:17:04.699Z,1.33
2023-01-29T19:19:41.818Z,1.34
2023-01-29T19:22:16.749Z,1.33
2023-01-29T19:24:51.861Z,1.35
2023-01-29T19:27:32.538Z,1.39
2023-01-29T19:30:12.955Z,1.41
2023-01-29T19:32:47.293Z,1.43
2023-01-29T19:35:21.413Z,1.44
2023-01-29T19:37:57.400Z,1.44
2023-01-29T19:40:32.120Z,1.46
2023-01-29T19:43:09.203Z,1.47
2023-01-29T19:45:49.624Z,1.48
2023-01-29T19:48:27.608Z,1.48
2023-01-29T19:51:07.200Z,1.48
2023-01-29T19:53:45.528Z,1.51
2023-01-29T19:56:21.779Z,1.54
2023-01-29T19:58:58.648Z,1.53
2023-01-29T20:01:33.909Z,1.50
2023-01-29T20:04:08.453Z,1.51
2023-01-29T20:06:43.726Z,1.50
2023-01-29T20:09:20.655Z,1.51
2023-01-29T20:11:57.380Z,1.53
2023-01-29T20:14:34.783Z,1.57
2023-01-29T20:17:08.774Z,1.59
2023-01-29T20:19:44.628Z,1.54
2023-01-29T20:22:19.715Z,1.54
2023-01-29T20:24:57.386Z,1.54
2023-01-29T20:27:33.805Z,1.51
2023-01-29T20:30:16.956Z,1.49
2023-01-29T20:32:52.689Z,1.50
2023-01-29T20:35:27.472Z,1.51
2023-01-29T20:38:02.506Z,1.53
2023-01-29T20:40:39.062Z,1.52
2023-01-29T20:43:15.569Z,1.50
2023-01-29T20:45:50.787Z,1.51
2023-01-29T20:48:26.653Z,1.55
2023-01-29T20:51:08.171Z,1.55
2023-01-29T20:53:43.207Z,1.55
2023-01-29T20:56:32.189Z,1.54
2023-01-29T20:59:14.106Z,1.57
2023-01-29T21:01:50.018Z,1.58
2023-01-29T21:04:24.694Z,1.57
2023-01-29T21:07:01.963Z,1.55
2023-01-29T21:09:37.607Z,1.54
2023-01-29T21:12:12.400Z,1.55
2023-01-29T21:14:47.455Z,1.57
2023-01-29T21:17:21.993Z,1.53
2023-01-29T21:20:01.300Z,1.51
2023-01-29T21:22:36.777Z,1.52
2023-01-29T21:25:14.146Z,1.52
2023-01-29T21:27:48.823Z,1.54
2023-01-29T21:30:24.666Z,1.57
2023-01-29T21:33:07.143Z,1.57
2023-01-29T21:35:43.066Z,1.55
2023-01-29T21:38:17.037Z,1.53
2023-01-29T21:40:51.913Z,1.54
2023-01-29T21:43:26.842Z,1.54
2023-01-29T21:46:04.069Z,1.51
2023-01-29T21:48:45.051Z,1.51
2023-01-29T21:51:21.132Z,1.51
2023-01-29T21:53:57.588Z,1.52
2023-01-29T21:56:31.766Z,1.54
2023-01-29T21:59:07.003Z,1.56
2023-01-29T22:01:43.355Z,1.56
2023-01-29T22:04:20.001Z,1.55
2023-01-29T22:06:54.344Z,1.55
2023-01-29T22:09:33.464Z,1.52
2023-01-29T22:12:15.110Z,1.52
2023-01-29T22:14:50.913Z,1.48
2023-01-29T22:17:34.810Z,1.47
2023-01-29T22:20:31.291Z,1.46
2023-01-29T22:23:06.137Z,1.45
2023-01-29T22:25:40.391Z,1.42
2023-01-29T22:28:16.128Z,1.41
2023-01-29T22:30:52.952Z,1.41
2023-01-29T22:33:27.561Z,1.41
2023-01-29T22:36:05.002Z,1.41
2023-01-29T22:38:40.006Z,1.43
2023-01-29T22:41:17.057Z,1.45
2023-01-29T22:43:52.994Z,1.47
2023-01-29T22:46:28.806Z,1.44
2023-01-29T22:49:07.599Z,1.44
2023-01-29T22:51:42.839Z,1.45
2023-01-29T22:54:20.592Z,1.44
2023-01-29T22:56:56.486Z,1.43
2023-01-29T22:59:33.902Z,1.46
2023-01-29T23:02:09.714Z,1.47
2023-01-29T23:04:43.476Z,1.45
2023-01-29T23:07:19.190Z,1.43
2023-01-29T23:09:54.292Z,1.44
2023-01-29T23:12:30.345Z,1.43
2023-01-29T23:15:05.719Z,1.45
2023-01-29T23:17:40.073Z,1.44
2023-01-29T23:20:17.360Z,1.45
2023-01-29T23:22:53.836Z,1.44
2023-01-29T23:25:48.934Z,1.44
2023-01-29T23:28:24.868Z,1.42
2023-01-29T23:30:59.928Z,1.40
2023-01-29T23:33:35.283Z,1.41
2023-01-29T23:36:13.374Z,1.41
2023-01-29T23:38:48.706Z,1.41
2023-01-29T23:41:23.044Z,1.42
2023-01-29T23:43:57.319Z,1.41
2023-01-29T23:46:34.920Z,1.42
2023-01-29T23:49:11.097Z,1.43
2023-01-29T23:51:46.520Z,1.44
2023-01-29T23:54:22.101Z,1.42
2023-01-29T23:57:02.459Z,1.42
2023-01-29T23:59:37.257Z,1.43
